createdAt,value
2022-09-06T00:02:07.339Z,18.90
2022-09-06T00:04:53.937Z,18.90
2022-09-06T00:07:40.861Z,18.60
2022-09-06T00:10:27.478Z,18.60
2022-09-06T00:13:15.836Z,18.80
2022-09-06T00:16:07.917Z,18.90
2022-09-06T00:18:55.685Z,18.80
2022-09-06T00:21:42.106Z,18.60
2022-09-06T00:24:29.044Z,18.60
2022-09-06T00:27:15.384Z,18.60
2022-09-06T00:30:05.466Z,18.70
2022-09-06T00:32:52.473Z,18.80
2022-09-06T00:35:39.268Z,18.90
2022-09-06T00:38:25.733Z,18.80
2022-09-06T00:41:15.632Z,18.80
2022-09-06T00:44:02.163Z,18.80
2022-09-06T00:46:53.527Z,18.90
2022-09-06T00:49:43.496Z,19.00
2022-09-06T00:52:31.368Z,19.00
2022-09-06T00:55:19.177Z,18.80
2022-09-06T00:58:05.899Z,19.00
2022-09-06T01:00:52.364Z,19.00
2022-09-06T01:03:41.098Z,19.00
2022-09-06T01:06:40.493Z,19.00
2022-09-06T01:09:43.770Z,19.00
2022-09-06T01:12:41.745Z,19.00
2022-09-06T01:15:36.663Z,19.00
2022-09-06T01:18:34.462Z,19.00
2022-09-06T01:21:33.229Z,19.10
2022-09-06T01:24:59.614Z,19.20
2022-09-06T01:28:17.077Z,19.20
2022-09-06T01:31:15.022Z,19.20
2022-09-06T01:34:18.511Z,19.20
2022-09-06T01:37:10.783Z,19.40
2022-09-06T01:39:57.621Z,19.60
2022-09-06T01:42:47.884Z,19.80
2022-09-06T01:45:45.040Z,19.80
2022-09-06T01:48:47.389Z,19.90
2022-09-06T01:51:44.048Z,20.00
2022-09-06T01:54:43.672Z,20.00
2022-09-06T01:57:48.849Z,20.00
2022-09-06T02:00:44.041Z,20.10
2022-09-06T02:03:35.836Z,20.00
2022-09-06T02:06:27.647Z,20.00
2022-09-06T02:09:19.095Z,20.00
2022-09-06T02:12:08.941Z,20.00
2022-09-06T02:14:59.687Z,20.20
2022-09-06T02:17:53.544Z,19.90
2022-09-06T02:20:43.957Z,19.90
2022-09-06T02:23:34.647Z,20.10
2022-09-06T02:26:25.435Z,20.00
2022-09-06T02:29:12.218Z,19.90
2022-09-06T02:32:04.105Z,19.80
2022-09-06T02:34:53.828Z,19.60
2022-09-06T02:37:40.434Z,19.30
2022-09-06T02:40:27.104Z,19.20
2022-09-06T02:43:13.726Z,19.20
2022-09-06T02:46:00.771Z,19.30
2022-09-06T02:48:47.793Z,19.50
2022-09-06T02:51:39.681Z,19.50
2022-09-06T02:54:26.351Z,19.50
2022-09-06T02:57:13.201Z,19.60
2022-09-06T02:59:59.679Z,19.70
2022-09-06T03:02:46.327Z,19.70
2022-09-06T03:05:33.309Z,19.40
2022-09-06T03:08:22.539Z,19.20
2022-09-06T03:11:09.088Z,19.20
2022-09-06T03:13:55.521Z,19.20
2022-09-06T03:16:42.222Z,19.20
2022-09-06T03:19:29.024Z,19.20
2022-09-06T03:22:15.892Z,19.30
2022-09-06T03:25:03.685Z,19.30
2022-09-06T03:27:50.382Z,19.00
2022-09-06T03:30:37.121Z,19.00
2022-09-06T03:33:24.008Z,19.10
2022-09-06T03:36:10.800Z,19.10
2022-09-06T03:38:58.248Z,19.10
2022-09-06T03:41:46.021Z,19.10
2022-09-06T03:44:32.685Z,19.10
2022-09-06T03:47:19.856Z,19.10
2022-09-06T03:50:07.545Z,19.10
2022-09-06T03:52:54.214Z,19.10
2022-09-06T03:55:40.634Z,19.10
2022-09-06T03:58:31.325Z,19.00
2022-09-06T04:01:17.666Z,19.00
2022-09-06T04:04:04.804Z,18.90
2022-09-06T04:06:51.337Z,19.10
2022-09-06T04:09:38.300Z,18.80
2022-09-06T04:12:25.286Z,18.60
2022-09-06T04:15:13.131Z,18.40
2022-09-06T04:17:59.533Z,18.40
2022-09-06T04:20:49.002Z,18.50
2022-09-06T04:23:39.794Z,18.60
2022-09-06T04:26:26.552Z,18.70
2022-09-06T04:29:13.070Z,18.50
2022-09-06T04:32:00.759Z,18.40
2022-09-06T04:34:47.576Z,18.40
2022-09-06T04:37:34.418Z,18.40
2022-09-06T04:40:21.543Z,18.50
2022-09-06T04:43:08.128Z,18.50
2022-09-06T04:45:54.573Z,18.20
2022-09-06T04:48:42.775Z,18.10
2022-09-06T04:51:29.563Z,17.90
2022-09-06T04:54:16.507Z,17.90
2022-09-06T04:57:03.526Z,17.70
2022-09-06T04:59:50.482Z,17.70
2022-09-06T05:02:37.463Z,17.80
2022-09-06T05:05:26.640Z,17.70
2022-09-06T05:08:13.561Z,17.80
2022-09-06T05:10:59.953Z,18.10
2022-09-06T05:13:47.166Z,18.20
2022-09-06T05:16:33.649Z,18.20
2022-09-06T05:19:20.584Z,18.40
2022-09-06T05:22:08.840Z,18.30
2022-09-06T05:24:55.668Z,18.30
2022-09-06T05:27:41.946Z,18.50
2022-09-06T05:30:28.875Z,18.90
2022-09-06T05:33:21.662Z,19.10
2022-09-06T05:36:09.313Z,18.90
2022-09-06T05:38:58.240Z,18.90
2022-09-06T05:41:44.995Z,19.10
2022-09-06T05:44:31.340Z,19.10
2022-09-06T05:47:17.714Z,19.30
2022-09-06T05:50:06.912Z,19.50
2022-09-06T05:52:55.149Z,19.60
2022-09-06T05:55:43.265Z,19.50
2022-09-06T05:58:30.272Z,19.60
2022-09-06T06:01:19.175Z,19.70
2022-09-06T06:04:07.990Z,19.80
2022-09-06T06:06:54.907Z,19.70
2022-09-06T06:09:41.913Z,19.80
2022-09-06T06:12:30.260Z,19.90
2022-09-06T06:15:17.036Z,19.90
2022-09-06T06:18:03.803Z,19.90
2022-09-06T06:20:50.590Z,19.90
2022-09-06T06:23:37.219Z,19.60
2022-09-06T06:26:25.866Z,19.60
2022-09-06T06:29:14.487Z,19.50
2022-09-06T06:32:01.016Z,19.30
2022-09-06T06:34:48.229Z,19.30
2022-09-06T06:37:35.145Z,19.40
2022-09-06T06:40:22.083Z,19.40
2022-09-06T06:43:10.808Z,19.30
2022-09-06T06:45:59.237Z,19.30
2022-09-06T06:48:50.383Z,19.30
2022-09-06T06:51:39.572Z,19.60
2022-09-06T06:54:26.098Z,19.70
2022-09-06T06:57:12.914Z,20.10
2022-09-06T06:59:59.401Z,21.20
2022-09-06T07:02:47.692Z,22.40
2022-09-06T07:08:41.985Z,24.60
2022-09-06T07:11:28.558Z,25.50
2022-09-06T07:14:15.800Z,25.40
2022-09-06T07:17:05.024Z,25.30
2022-09-06T07:26:16.408Z,25.70
2022-09-06T07:29:06.238Z,25.90
2022-09-06T07:32:12.239Z,25.60
2022-09-06T07:35:00.644Z,25.70
2022-09-06T07:37:53.660Z,26.30
2022-09-06T07:40:40.010Z,26.90
2022-09-06T07:43:27.656Z,27.10
2022-09-06T07:46:16.449Z,27.20
2022-09-06T07:49:05.617Z,27.00
2022-09-06T07:51:53.698Z,26.60
2022-09-06T07:54:40.121Z,25.90
2022-09-06T07:57:26.703Z,25.70
2022-09-06T08:00:14.186Z,25.70
2022-09-06T08:03:00.956Z,26.30
2022-09-06T08:08:59.815Z,27.80
2022-09-06T08:11:46.905Z,28.20
2022-09-06T08:14:33.397Z,28.70
2022-09-06T08:17:20.073Z,29.10
2022-09-06T08:20:07.629Z,29.60
2022-09-06T08:22:54.220Z,29.80
2022-09-06T08:25:42.182Z,30.00
2022-09-06T08:28:29.054Z,30.50
2022-09-06T08:31:17.709Z,30.60
2022-09-06T08:34:04.902Z,31.00
2022-09-06T08:36:51.868Z,30.90
2022-09-06T08:39:38.904Z,31.00
2022-09-06T08:42:27.133Z,31.10
2022-09-06T08:45:19.303Z,30.80
2022-09-06T08:48:07.037Z,31.30
2022-09-06T08:51:08.367Z,31.50
2022-09-06T08:54:00.780Z,31.80
2022-09-06T08:57:02.380Z,31.40
2022-09-06T08:59:55.131Z,31.00
2022-09-06T09:02:45.784Z,31.30
2022-09-06T09:05:35.372Z,31.30
2022-09-06T09:08:25.515Z,31.50
2022-09-06T09:11:17.947Z,31.40
2022-09-06T09:14:09.673Z,31.60
2022-09-06T09:17:13.017Z,32.00
2022-09-06T09:19:59.874Z,32.40
2022-09-06T09:22:47.481Z,32.80
2022-09-06T09:25:35.145Z,32.70
2022-09-06T09:28:24.947Z,32.60
2022-09-06T09:31:14.212Z,32.80
2022-09-06T09:34:04.710Z,32.70
2022-09-06T09:40:28.782Z,33.00
2022-09-06T09:43:18.897Z,32.70
2022-09-06T09:46:15.716Z,33.10
2022-09-06T09:49:09.959Z,33.20
2022-09-06T09:52:07.540Z,33.30
2022-09-06T09:54:56.155Z,33.10
2022-09-06T09:57:46.764Z,33.00
2022-09-06T10:00:36.365Z,32.60
2022-09-06T10:03:30.976Z,31.80
2022-09-06T10:09:36.757Z,30.90
2022-09-06T10:12:30.695Z,30.70
2022-09-06T10:15:36.135Z,30.70
2022-09-06T10:18:31.363Z,30.80
2022-09-06T10:21:22.290Z,31.20
2022-09-06T10:24:31.964Z,31.20
2022-09-06T10:27:24.440Z,31.00
2022-09-06T10:30:11.904Z,30.90
2022-09-06T10:33:06.094Z,30.50
2022-09-06T10:35:53.846Z,30.00
2022-09-06T10:38:52.552Z,29.80
2022-09-06T10:41:57.044Z,29.70
2022-09-06T10:44:59.314Z,29.50
2022-09-06T10:47:57.314Z,29.30
2022-09-06T10:50:49.205Z,29.50
2022-09-06T10:53:49.932Z,30.00
2022-09-06T10:56:42.653Z,30.40
2022-09-06T11:02:40.036Z,31.10
2022-09-06T11:05:39.168Z,31.30
2022-09-06T11:08:46.327Z,31.60
2022-09-06T11:11:43.474Z,32.00
2022-09-06T11:14:31.234Z,32.20
2022-09-06T11:17:27.324Z,32.20
2022-09-06T11:20:18.982Z,32.20
2022-09-06T11:23:26.021Z,32.10
2022-09-06T11:26:30.169Z,32.10
2022-09-06T11:29:23.765Z,31.90
2022-09-06T11:32:30.405Z,31.90
2022-09-06T11:35:25.453Z,31.80
2022-09-06T11:38:23.107Z,32.00
2022-09-06T11:41:17.221Z,32.00
2022-09-06T11:44:05.810Z,32.20
2022-09-06T11:47:07.490Z,32.40
2022-09-06T11:49:54.305Z,32.20
2022-09-06T11:53:12.828Z,32.00
2022-09-06T11:56:22.017Z,32.00
2022-09-06T11:59:21.712Z,31.90
2022-09-06T12:02:32.007Z,31.90
2022-09-06T12:05:27.122Z,32.00
2022-09-06T12:08:30.520Z,32.40
2022-09-06T12:11:35.231Z,32.20
2022-09-06T12:14:31.588Z,32.50
2022-09-06T12:17:22.237Z,32.70
2022-09-06T12:20:09.053Z,33.00
2022-09-06T12:22:56.970Z,32.70
2022-09-06T12:26:00.076Z,32.50
2022-09-06T12:28:49.877Z,32.50
2022-09-06T12:31:40.193Z,32.40
2022-09-06T12:34:29.825Z,32.20
2022-09-06T12:37:31.153Z,31.90
2022-09-06T12:40:20.548Z,31.30
2022-09-06T12:43:09.961Z,31.20
2022-09-06T12:45:56.575Z,31.00
2022-09-06T12:48:44.797Z,31.10
2022-09-06T12:51:31.631Z,31.30
2022-09-06T12:54:21.899Z,31.50
2022-09-06T12:57:20.867Z,31.60
2022-09-06T13:00:08.244Z,31.60
2022-09-06T13:03:06.954Z,31.60
2022-09-06T13:05:56.565Z,31.60
2022-09-06T13:08:47.287Z,31.70
2022-09-06T13:11:38.446Z,31.70
2022-09-06T13:14:29.646Z,31.60
2022-09-06T13:17:25.306Z,31.40
2022-09-06T13:20:14.309Z,31.30
2022-09-06T13:23:11.527Z,31.30
2022-09-06T13:25:58.648Z,31.10
2022-09-06T13:28:45.297Z,30.80
2022-09-06T13:31:33.954Z,30.70
2022-09-06T13:34:23.225Z,30.60
2022-09-06T13:37:11.834Z,30.50
2022-09-06T13:39:59.277Z,30.40
2022-09-06T13:42:46.067Z,30.30
2022-09-06T13:45:33.722Z,30.10
2022-09-06T13:48:28.984Z,29.90
2022-09-06T13:51:16.108Z,30.00
2022-09-06T13:54:07.711Z,29.90
2022-09-06T13:56:55.089Z,29.90
2022-09-06T13:59:42.885Z,29.80
2022-09-06T14:02:29.570Z,29.80
2022-09-06T14:05:18.177Z,29.60
2022-09-06T14:08:04.977Z,29.60
2022-09-06T14:10:51.744Z,29.40
2022-09-06T14:13:38.515Z,29.50
2022-09-06T14:16:25.858Z,29.40
2022-09-06T14:19:13.093Z,29.50
2022-09-06T14:22:01.845Z,29.60
2022-09-06T14:24:49.501Z,29.70
2022-09-06T14:27:36.308Z,29.80
2022-09-06T14:30:22.865Z,29.70
2022-09-06T14:33:09.772Z,29.70
2022-09-06T14:35:56.187Z,29.10
2022-09-06T14:38:45.717Z,28.70
2022-09-06T14:41:32.184Z,28.00
2022-09-06T14:44:19.321Z,27.70
2022-09-06T14:47:06.425Z,27.40
2022-09-06T14:49:53.336Z,27.30
2022-09-06T14:52:39.749Z,27.40
2022-09-06T14:55:28.661Z,27.50
2022-09-06T14:58:15.622Z,27.50
2022-09-06T15:01:11.713Z,27.50
2022-09-06T15:04:00.650Z,27.50
2022-09-06T15:06:48.333Z,27.50
2022-09-06T15:09:35.133Z,27.50
2022-09-06T15:12:23.351Z,27.40
2022-09-06T15:15:10.817Z,27.50
2022-09-06T15:17:58.339Z,27.30
2022-09-06T15:20:46.375Z,27.10
2022-09-06T15:23:33.261Z,27.10
2022-09-06T15:26:20.026Z,27.10
2022-09-06T15:29:08.912Z,27.10
2022-09-06T15:31:57.125Z,27.00
2022-09-06T15:34:43.759Z,27.00
2022-09-06T15:37:30.741Z,27.10
2022-09-06T15:40:17.540Z,27.10
2022-09-06T15:43:04.569Z,26.90
2022-09-06T15:45:53.292Z,26.80
2022-09-06T15:48:43.264Z,26.70
2022-09-06T15:51:30.251Z,26.70
2022-09-06T15:54:19.609Z,26.70
2022-09-06T15:57:05.764Z,26.70
2022-09-06T15:59:53.414Z,26.60
2022-09-06T16:02:42.561Z,26.70
2022-09-06T16:08:36.524Z,27.00
2022-09-06T16:11:23.365Z,27.00
2022-09-06T16:14:13.199Z,26.90
2022-09-06T16:17:00.033Z,27.00
2022-09-06T16:19:49.689Z,27.00
2022-09-06T16:22:36.396Z,27.10
2022-09-06T16:25:23.381Z,27.20
2022-09-06T16:28:09.786Z,27.30
2022-09-06T16:30:57.303Z,27.40
2022-09-06T16:33:45.536Z,27.40
2022-09-06T16:36:33.785Z,27.50
2022-09-06T16:39:20.401Z,27.60
2022-09-06T16:42:07.851Z,27.50
2022-09-06T16:44:55.090Z,27.40
2022-09-06T16:47:41.723Z,27.40
2022-09-06T16:50:28.709Z,27.30
2022-09-06T16:53:20.320Z,27.30
2022-09-06T16:56:09.281Z,27.30
2022-09-06T16:58:58.550Z,27.30
2022-09-06T17:01:45.677Z,27.30
2022-09-06T17:04:32.749Z,27.30
2022-09-06T17:07:19.941Z,27.10
2022-09-06T17:10:09.094Z,27.20
2022-09-06T17:12:55.991Z,27.10
2022-09-06T17:16:00.338Z,27.00
2022-09-06T17:18:47.267Z,27.00
2022-09-06T17:21:34.848Z,27.10
2022-09-06T17:24:21.780Z,26.80
2022-09-06T17:27:10.037Z,26.70
2022-09-06T17:29:56.745Z,26.60
2022-09-06T17:32:43.676Z,26.60
2022-09-06T17:35:30.572Z,26.50
2022-09-06T17:38:17.542Z,26.40
2022-09-06T17:41:04.643Z,26.20
2022-09-06T17:43:54.065Z,26.20
2022-09-06T17:46:57.158Z,25.90
2022-09-06T17:49:49.006Z,25.40
2022-09-06T17:52:37.121Z,25.30
2022-09-06T17:55:24.213Z,25.20
2022-09-06T17:58:11.201Z,25.10
2022-09-06T18:01:03.304Z,24.80
2022-09-06T18:03:50.476Z,24.60
2022-09-06T18:06:40.233Z,24.20
2022-09-06T18:09:26.863Z,24.10
2022-09-06T18:12:13.912Z,23.90
2022-09-06T18:15:02.261Z,23.70
2022-09-06T18:17:50.562Z,23.60
2022-09-06T18:20:37.909Z,23.60
2022-09-06T18:23:24.858Z,23.70
2022-09-06T18:26:12.005Z,23.60
2022-09-06T18:28:58.605Z,23.40
2022-09-06T18:31:45.907Z,23.20
2022-09-06T18:34:34.124Z,23.30
2022-09-06T18:37:20.849Z,23.30
2022-09-06T18:40:08.909Z,23.30
2022-09-06T18:42:55.762Z,23.50
2022-09-06T18:45:43.026Z,23.50
2022-09-06T18:48:31.211Z,23.50
2022-09-06T18:51:19.141Z,23.40
2022-09-06T18:54:06.844Z,23.50
2022-09-06T18:56:53.363Z,23.50
2022-09-06T18:59:39.993Z,23.50
2022-09-06T19:02:28.504Z,23.60
2022-09-06T19:05:15.782Z,23.30
2022-09-06T19:08:04.743Z,23.10
2022-09-06T19:11:00.915Z,22.80
2022-09-06T19:13:51.287Z,22.60
2022-09-06T19:16:38.209Z,22.40
2022-09-06T19:19:25.606Z,22.10
2022-09-06T19:22:12.357Z,22.10
2022-09-06T19:25:00.870Z,22.20
2022-09-06T19:27:48.951Z,22.40
2022-09-06T19:30:35.643Z,22.30
2022-09-06T19:33:22.249Z,22.30
2022-09-06T19:36:12.040Z,22.30
2022-09-06T19:39:05.033Z,22.40
2022-09-06T19:41:53.843Z,22.50
2022-09-06T19:44:40.626Z,22.60
2022-09-06T19:47:27.696Z,22.50
2022-09-06T19:50:15.406Z,22.50
2022-09-06T19:53:07.049Z,22.50
2022-09-06T19:55:54.220Z,22.60
2022-09-06T19:58:43.497Z,22.60
2022-09-06T20:01:32.574Z,22.60
2022-09-06T20:04:19.950Z,22.50
2022-09-06T20:07:06.987Z,22.40
2022-09-06T20:09:53.561Z,22.30
2022-09-06T20:12:40.225Z,22.40
2022-09-06T20:15:28.011Z,22.30
2022-09-06T20:18:15.159Z,22.30
2022-09-06T20:21:02.354Z,22.30
2022-09-06T20:23:50.501Z,22.30
2022-09-06T20:26:37.669Z,22.30
2022-09-06T20:29:24.589Z,22.30
2022-09-06T20:32:12.973Z,22.30
2022-09-06T20:34:59.478Z,22.30
2022-09-06T20:37:46.454Z,22.30
2022-09-06T20:40:33.122Z,22.30
2022-09-06T20:43:19.891Z,22.30
2022-09-06T20:46:14.536Z,22.20
2022-09-06T20:49:04.642Z,22.30
2022-09-06T20:51:51.442Z,22.30
2022-09-06T20:54:38.015Z,22.20
2022-09-06T20:57:25.139Z,22.20
2022-09-06T21:00:14.528Z,22.20
2022-09-06T21:03:01.332Z,22.10
2022-09-06T21:05:49.911Z,22.20
2022-09-06T21:08:41.885Z,22.10
2022-09-06T21:11:29.919Z,22.10
2022-09-06T21:14:16.610Z,22.20
2022-09-06T21:17:03.762Z,22.30
2022-09-06T21:19:50.470Z,22.30
2022-09-06T21:22:38.829Z,22.30
2022-09-06T21:25:25.720Z,22.20
2022-09-06T21:28:12.520Z,22.20
2022-09-06T21:31:03.597Z,22.30
2022-09-06T21:33:53.622Z,22.10
2022-09-06T21:36:40.793Z,22.10
2022-09-06T21:39:29.248Z,22.00
2022-09-06T21:42:16.193Z,22.10
2022-09-06T21:45:03.093Z,22.10
2022-09-06T21:47:49.969Z,22.10
2022-09-06T21:50:36.957Z,22.10
2022-09-06T21:53:26.000Z,22.10
2022-09-06T21:56:15.639Z,22.00
2022-09-06T21:59:03.169Z,22.00
2022-09-06T22:01:50.059Z,22.00
2022-09-06T22:04:37.878Z,22.00
2022-09-06T22:07:24.540Z,21.90
2022-09-06T22:10:11.645Z,22.00
2022-09-06T22:13:00.055Z,22.10
2022-09-06T22:15:47.212Z,21.90
2022-09-06T22:18:34.500Z,21.90
2022-09-06T22:21:22.988Z,21.80
2022-09-06T22:24:11.007Z,21.70
2022-09-06T22:26:57.494Z,21.60
2022-09-06T22:29:45.851Z,21.50
2022-09-06T22:32:32.601Z,21.50
2022-09-06T22:35:19.773Z,21.50
2022-09-06T22:38:07.618Z,21.50
2022-09-06T22:40:54.607Z,21.40
2022-09-06T22:43:41.703Z,21.30
2022-09-06T22:46:30.733Z,21.30
2022-09-06T22:49:17.385Z,21.30
2022-09-06T22:52:04.412Z,21.20
2022-09-06T22:54:51.304Z,21.20
2022-09-06T22:57:38.364Z,21.20
2022-09-06T23:00:26.855Z,21.20
2022-09-06T23:03:14.994Z,21.20
2022-09-06T23:06:02.616Z,21.10
2022-09-06T23:08:49.629Z,21.10
2022-09-06T23:11:36.289Z,21.20
2022-09-06T23:14:22.709Z,21.20
2022-09-06T23:17:10.379Z,21.30
2022-09-06T23:19:58.461Z,21.20
2022-09-06T23:22:45.197Z,21.00
2022-09-06T23:25:31.587Z,20.80
2022-09-06T23:28:18.647Z,20.50
2022-09-06T23:31:06.748Z,20.30
2022-09-06T23:33:53.947Z,20.20
2022-09-06T23:36:42.002Z,19.90
2022-09-06T23:39:29.302Z,19.90
2022-09-06T23:42:16.125Z,20.00
2022-09-06T23:45:03.433Z,19.90
2022-09-06T23:47:50.163Z,19.80
2022-09-06T23:50:37.238Z,19.80
2022-09-06T23:53:25.541Z,19.80
2022-09-06T23:56:12.737Z,19.80
2022-09-06T23:58:59.321Z,19.80
